Vladimir Tikhonov — A8IA6 — position and weather

sailwx.info

Track history (hours):
 
Tides and Currents Weather Stations Pressure Air Temp Water Temp Dewpoint Dewpoint Depression Visibility Wind Speed Wind Dir Waves Ship Positions

Vladimir Tikhonov

Last reported at 2018-Feb-11 02:07 UTC. Time now 2018-Feb-26 03:46 UTC.
Position N 25°36' W 079°35'.
Warning: this ship's position is 15 days out of date.

Length 280 m; draft 13 m.

Type: Ship. MMSI: 636012814.

Date/timePositionNaut miles runAvg speedWind from/ knotsBaromVisibWave heightAir tempDewpointWater temp
2018-Feb-11 02:07N 25°36' W 079°35'111.7
2018-Feb-11 02:00N 25°38' W 079°34'711.6
2018-Feb-11 01:23N 25°45' W 079°33'510.3
2018-Feb-11 00:52N 25°50' W 079°32'3 9.4
2018-Feb-11 00:30N 25°53' W 079°32'5 9.5
2018-Feb-10 23:58N 25°58' W 079°31'4 9.6
2018-Feb-10 23:30N 26°03' W 079°30'5 9.6
2018-Feb-10 23:00N 26°07' W 079°29'5 9.6
2018-Feb-10 22:31N 26°12' W 079°28'5 9.4
2018-Feb-10 22:00N 26°17' W 079°27'  
2018-Feb-01 18:42N 36°23' W 031°28'211.8
2018-Feb-01 18:29N 36°23' W 031°25'612.0
2018-Feb-01 17:59N 36°24' W 031°17'912.1
2018-Feb-01 17:14N 36°24' W 031°06'2911.8
2018-Feb-01 14:45N 36°25' W 030°30'2611.5
2018-Feb-01 12:30N 36°26' W 029°58'1911.4
2018-Feb-01 10:48N 36°26' W 029°34'1311.6
2018-Feb-01 09:42N 36°27' W 029°18'211.6
2018-Feb-01 09:30N 36°27' W 029°15'611.8
2018-Feb-01 09:00N 36°27' W 029°08'711.9
2018-Feb-01 08:27N 36°27' W 028°59'2411.7
2018-Feb-01 06:26N 36°28' W 028°30'511.6
2018-Feb-01 05:59N 36°28' W 028°24'611.5
2018-Feb-01 05:29N 36°28' W 028°16'611.4
2018-Feb-01 04:58N 36°28' W 028°09'611.6
2018-Feb-01 04:25N 36°28' W 028°01'511.7
2018-Feb-01 04:00N 36°29' W 027°55'1211.5
2018-Feb-01 03:00N 36°29' W 027°41'811.3
2018-Feb-01 02:17N 36°29' W 027°31'  
Track history (hours):
 
Tides and Currents Weather Stations Pressure Air Temp Water Temp Dewpoint Dewpoint Depression Visibility Wind Speed Wind Dir Waves Ship Positions

Vladimir Tikhonov

Last reported at 2018-Feb-11 02:07 UTC. Time now 2018-Feb-26 03:46 UTC.
Position N 25°36' W 079°35'.
Warning: this ship's position is 15 days out of date.

Length 280 m; draft 13 m.

Type: Ship. MMSI: 636012814.

Date/timePositionNaut miles runAvg speedWind from/ knotsBaromVisibWave heightAir tempDewpointWater temp
2018-Feb-11 02:07N 25°36' W 079°35'111.7
2018-Feb-11 02:00N 25°38' W 079°34'711.6
2018-Feb-11 01:23N 25°45' W 079°33'510.3
2018-Feb-11 00:52N 25°50' W 079°32'3 9.4
2018-Feb-11 00:30N 25°53' W 079°32'5 9.5
2018-Feb-10 23:58N 25°58' W 079°31'4 9.6
2018-Feb-10 23:30N 26°03' W 079°30'5 9.6
2018-Feb-10 23:00N 26°07' W 079°29'5 9.6
2018-Feb-10 22:31N 26°12' W 079°28'5 9.4
2018-Feb-10 22:00N 26°17' W 079°27'  
2018-Feb-01 18:42N 36°23' W 031°28'211.8
2018-Feb-01 18:29N 36°23' W 031°25'612.0
2018-Feb-01 17:59N 36°24' W 031°17'912.1
2018-Feb-01 17:14N 36°24' W 031°06'2911.8
2018-Feb-01 14:45N 36°25' W 030°30'2611.5
2018-Feb-01 12:30N 36°26' W 029°58'1911.4
2018-Feb-01 10:48N 36°26' W 029°34'1311.6
2018-Feb-01 09:42N 36°27' W 029°18'211.6
2018-Feb-01 09:30N 36°27' W 029°15'611.8
2018-Feb-01 09:00N 36°27' W 029°08'711.9
2018-Feb-01 08:27N 36°27' W 028°59'2411.7
2018-Feb-01 06:26N 36°28' W 028°30'511.6
2018-Feb-01 05:59N 36°28' W 028°24'611.5
2018-Feb-01 05:29N 36°28' W 028°16'611.4
2018-Feb-01 04:58N 36°28' W 028°09'611.6
2018-Feb-01 04:25N 36°28' W 028°01'511.7
2018-Feb-01 04:00N 36°29' W 027°55'1211.5
2018-Feb-01 03:00N 36°29' W 027°41'811.3
2018-Feb-01 02:17N 36°29' W 027°31'  

Dump ship's entire track history